Summerford, Canada
Current Conditions -  °F | °C
As of 11:00 AM on Monday 20 Oct 2014 (Local Time) from CYQX Reporting Station
Rain Showers Rain Showers  
Wind Chill: 63°   Ceiling: 700
Heat Index: 63°   Visibility: 6mi
Dew Point: 61°   Wind: 22mph
Humidity: 94%   Direction: 170°S
Pressure: 29.38"   Gusts: 29mph
Location:  49.48°N, 54.83°W
Report Text: CYQX 201300Z 17019G25KT 6SM -SHRA BR BKN007 BKN014 OVC036 17/16 A2938 RMK SF5SC2SC1 PRESFR SLP949 DENSITY ALT 1400FT
Loading
Personal Weather Stations






























Interactive Weather Map
Tropical Storm Tracking
New forecast layout! Learn more

10-Day Weather Forecast

Advertisements
Track Severe Weather on mobile